Time;durP1;ratioP1;P1;durP2;ratioP2;P2;SDS_P1;SDS_P2;PMS_P1;PMS_P2;Temp;Humidity;BMP_temperature;BMP_pressure;BME280_temperature;BME280_humidity;BME280_pressure;Samples;Min_cycle;Max_cycle;Signal;HPM_P1;HPM_P2
2024/03/11 00:00:46;;;;;;;16.50;8.80;;;;;;;6.64;70.71;100240.39;106365;1260;97921;-78
2024/03/11 00:03:43;;;;;;;16.30;8.90;;;;;;;6.63;70.91;100248.15;105903;1260;98809;-79
2024/03/11 00:06:29;;;;;;;15.30;9.10;;;;;;;6.62;71.12;100246.65;105892;1261;101448;-78
2024/03/11 00:09:28;;;;;;;18.10;9.80;;;;;;;6.60;71.15;100248.01;105968;1261;100320;-80
2024/03/11 00:12:22;;;;;;;17.40;9.50;;;;;;;6.55;71.09;100250.99;105901;1261;97966;-79
2024/03/11 00:15:10;;;;;;;15.20;9.00;;;;;;;6.50;71.27;100247.44;105823;1264;97970;-80
2024/03/11 00:17:56;;;;;;;14.80;8.10;;;;;;;6.45;71.49;100245.02;106029;1261;97853;-79
2024/03/11 00:20:45;;;;;;;14.80;8.60;;;;;;;6.42;71.41;100248.89;106762;1261;101500;-80
2024/03/11 00:23:30;;;;;;;15.40;8.90;;;;;;;6.40;71.56;100250.58;106640;1264;99142;-81
2024/03/11 00:26:16;;;;;;;14.80;8.90;;;;;;;6.38;71.72;100250.63;106778;1261;97789;-80
2024/03/11 00:29:03;;;;;;;15.30;9.20;;;;;;;6.34;71.87;100252.05;106708;1264;97887;-80
2024/03/11 00:31:51;;;;;;;18.70;10.90;;;;;;;6.30;72.07;100251.30;106775;1260;98476;-79
2024/03/11 00:34:41;;;;;;;18.00;9.30;;;;;;;6.29;72.33;100248.83;106440;1261;101358;-79
2024/03/11 00:37:27;;;;;;;13.60;8.50;;;;;;;6.26;72.31;100253.92;106002;1264;100432;-80
2024/03/11 00:40:13;;;;;;;16.50;10.50;;;;;;;6.24;72.22;100247.54;105873;1261;98982;-79
2024/03/11 00:42:59;;;;;;;15.70;9.70;;;;;;;6.22;72.19;100239.43;105879;1264;97866;-79
2024/03/11 00:45:46;;;;;;;17.40;9.10;;;;;;;6.20;72.41;100235.34;105948;1260;98436;-79
2024/03/11 00:48:32;;;;;;;17.80;9.60;;;;;;;6.19;72.55;100236.73;106029;1260;101376;-79
2024/03/11 00:51:18;;;;;;;16.50;9.60;;;;;;;6.19;72.70;100241.70;106276;1259;99260;-80
2024/03/11 00:54:06;;;;;;;14.70;9.10;;;;;;;6.16;72.46;100239.36;106333;1259;97931;-79
2024/03/11 00:56:52;;;;;;;14.60;9.20;;;;;;;6.13;72.81;100240.00;106318;1264;98812;-80
2024/03/11 00:59:37;;;;;;;20.60;9.90;;;;;;;6.13;72.80;100246.08;106384;1264;97970;-79
2024/03/11 01:02:26;;;;;;;17.30;9.90;;;;;;;6.12;72.79;100241.20;106291;1260;101737;-80
2024/03/11 01:05:14;;;;;;;17.00;9.30;;;;;;;6.11;72.84;100236.02;106333;1261;99177;-80
2024/03/11 01:07:59;;;;;;;17.10;8.50;;;;;;;6.10;72.96;100233.32;106144;1260;97969;-79
2024/03/11 01:10:44;;;;;;;16.00;10.20;;;;;;;6.09;73.20;100234.42;105598;1264;98076;-79
2024/03/11 01:13:30;;;;;;;18.40;9.60;;;;;;;6.09;73.27;100235.52;105387;1264;98616;-78
2024/03/11 01:16:15;;;;;;;14.90;9.10;;;;;;;6.07;73.16;100227.38;105251;1264;102667;-77
2024/03/11 01:19:01;;;;;;;16.90;9.70;;;;;;;6.06;73.21;100224.48;105693;1260;100471;-78
2024/03/11 01:21:50;;;;;;;17.70;9.70;;;;;;;6.06;73.30;100221.52;105372;1260;99069;-79
2024/03/11 01:24:36;;;;;;;16.70;9.90;;;;;;;6.06;73.31;100219.40;105609;1261;97973;-78
2024/03/11 01:27:24;;;;;;;15.40;8.20;;;;;;;6.05;73.35;100218.94;105897;1259;98433;-78
2024/03/11 01:30:10;;;;;;;13.40;8.50;;;;;;;6.05;73.31;100220.86;105907;1265;102677;-79
2024/03/11 01:32:57;;;;;;;15.60;9.40;;;;;;;6.05;73.43;100220.06;105888;1260;99104;-80
2024/03/11 01:35:43;;;;;;;13.50;8.30;;;;;;;6.04;73.49;100218.17;105864;1260;97964;-80
2024/03/11 01:38:29;;;;;;;18.00;9.00;;;;;;;6.03;73.43;100216.84;105914;1263;97955;-78
2024/03/11 01:41:19;;;;;;;16.50;8.70;;;;;;;6.00;73.41;100217.04;105876;1261;98756;-79
2024/03/11 01:44:09;;;;;;;15.90;8.90;;;;;;;5.97;73.54;100216.10;105860;1261;101419;-78
2024/03/11 01:46:55;;;;;;;13.70;8.40;;;;;;;5.96;73.47;100220.13;105911;1259;99088;-78
2024/03/11 01:49:43;;;;;;;13.70;8.20;;;;;;;5.96;73.40;100217.77;106024;1260;97982;-79
2024/03/11 01:52:33;;;;;;;14.90;9.60;;;;;;;5.96;73.37;100213.16;105785;1264;196466;-78
2024/03/11 01:55:22;;;;;;;17.30;9.00;;;;;;;5.95;73.22;100207.27;106008;1261;98240;-79
2024/03/11 01:58:10;;;;;;;18.30;9.70;;;;;;;5.93;73.34;100207.50;106060;1261;102601;-79
2024/03/11 02:00:56;;;;;;;16.10;9.00;;;;;;;5.90;73.19;100203.25;105835;1261;101029;-80
2024/03/11 02:03:42;;;;;;;14.90;8.70;;;;;;;5.88;73.28;100200.92;105911;1260;98080;-79
2024/03/11 02:06:28;;;;;;;14.80;9.60;;;;;;;5.88;73.36;100198.19;106294;1261;96668;-78
2024/03/11 02:09:19;;;;;;;15.80;9.40;;;;;;;5.87;73.17;100204.63;105953;1260;98710;-79
2024/03/11 02:12:06;;;;;;;18.10;9.60;;;;;;;5.87;73.24;100203.73;105986;1259;101367;-78
2024/03/11 02:14:52;;;;;;;15.20;9.20;;;;;;;5.86;73.30;100199.94;106000;1260;100436;-79
2024/03/11 02:17:39;;;;;;;16.00;10.00;;;;;;;5.85;73.24;100202.02;106386;1260;97949;-80
2024/03/11 02:20:26;;;;;;;13.50;8.50;;;;;;;5.83;73.14;100200.30;106310;1264;97747;-79
2024/03/11 02:23:13;;;;;;;17.60;9.90;;;;;;;5.82;73.11;100201.99;105853;1264;98463;-78
2024/03/11 02:26:00;;;;;;;15.10;9.20;;;;;;;5.82;73.15;100193.84;105887;1264;101539;-79
2024/03/11 02:28:46;;;;;;;19.90;10.10;;;;;;;5.83;73.30;100191.10;105857;1260;99151;-79
2024/03/11 02:31:33;;;;;;;17.10;9.50;;;;;;;5.83;73.04;100184.89;105848;1264;99093;-79
2024/03/11 02:34:19;;;;;;;17.30;9.20;;;;;;;5.81;72.73;100180.78;105730;1264;98939;-78
2024/03/11 02:37:07;;;;;;;15.80;8.40;;;;;;;5.82;72.81;100179.69;105983;1264;97973;-78
2024/03/11 02:39:52;;;;;;;19.90;10.00;;;;;;;5.83;72.79;100177.64;105889;1260;101404;-78
2024/03/11 02:42:37;;;;;;;16.30;9.30;;;;;;;5.82;72.64;100170.43;105841;1261;99096;-78
2024/03/11 02:45:25;;;;;;;15.20;9.40;;;;;;;5.79;72.58;100170.37;105451;1259;99539;-78
2024/03/11 02:48:11;;;;;;;21.20;9.90;;;;;;;5.79;72.50;100172.92;105418;1264;98525;-78
2024/03/11 02:50:56;;;;;;;17.80;10.00;;;;;;;5.79;72.36;100176.08;105418;1263;98422;-79
2024/03/11 02:53:42;;;;;;;16.30;9.20;;;;;;;5.78;72.30;100178.17;105296;1261;101347;-81
2024/03/11 02:56:27;;;;;;;14.20;8.70;;;;;;;5.76;72.13;100178.71;105829;1259;100362;-80
2024/03/11 02:59:13;;;;;;;14.70;9.50;;;;;;;5.75;72.45;100182.05;105799;1260;98984;-79
2024/03/11 03:01:58;;;;;;;18.80;10.30;;;;;;;5.74;72.86;100188.47;105390;1260;97979;-78
2024/03/11 03:04:45;;;;;;;16.30;9.70;;;;;;;5.74;73.16;100183.05;105448;1260;98435;-79
2024/03/11 03:07:30;;;;;;;15.70;9.30;;;;;;;5.72;73.32;100182.48;105599;1264;101397;-78
2024/03/11 03:10:17;;;;;;;21.40;10.00;;;;;;;5.69;73.35;100183.74;105712;1264;99088;-78
2024/03/11 03:13:02;;;;;;;17.60;9.40;;;;;;;5.66;73.60;100183.67;105746;1264;97891;-78
2024/03/11 03:15:48;;;;;;;16.10;9.50;;;;;;;5.63;73.93;100182.77;105805;1260;97874;-79
2024/03/11 03:18:34;;;;;;;20.20;10.50;;;;;;;5.61;74.19;100182.69;105974;1264;98020;-79
2024/03/11 03:21:21;;;;;;;18.30;9.00;;;;;;;5.58;74.03;100184.10;106745;1259;102265;-80
2024/03/11 03:24:07;;;;;;;18.00;10.40;;;;;;;5.55;74.43;100182.91;106713;1260;99181;-80
2024/03/11 03:26:53;;;;;;;22.00;11.50;;;;;;;5.55;74.98;100183.70;106686;1260;97932;-80
2024/03/11 03:29:40;;;;;;;19.20;10.70;;;;;;;5.52;75.03;100182.77;106751;1264;97903;-81
2024/03/11 03:32:25;;;;;;;17.10;10.80;;;;;;;5.50;75.08;100182.84;106701;1263;98400;-80
2024/03/11 03:35:10;;;;;;;16.70;10.50;;;;;;;5.49;75.41;100185.39;106935;1260;101363;-80
2024/03/11 03:37:56;;;;;;;22.80;11.10;;;;;;;5.48;75.38;100185.42;106507;1260;100407;-79
2024/03/11 03:40:42;;;;;;;16.90;10.60;;;;;;;5.47;75.51;100182.06;106661;1261;98069;-80
2024/03/11 03:43:28;;;;;;;18.80;10.20;;;;;;;5.45;75.43;100175.52;106655;1262;98239;-79
2024/03/11 03:46:14;;;;;;;19.90;11.00;;;;;;;5.43;75.31;100177.82;106349;1264;97891;-80
2024/03/11 03:48:59;;;;;;;17.70;10.90;;;;;;;5.43;75.43;100177.31;105617;1259;102090;-79
2024/03/11 03:51:45;;;;;;;17.00;9.40;;;;;;;5.43;75.56;100171.84;105783;1259;99455;-79
2024/03/11 03:54:31;;;;;;;20.10;10.10;;;;;;;5.43;75.55;100169.58;106438;1264;97739;-78
2024/03/11 03:57:17;;;;;;;18.80;10.30;;;;;;;5.43;75.40;100165.70;106446;1260;97932;-78
2024/03/11 04:00:05;;;;;;;17.70;10.30;;;;;;;5.42;75.21;100164.51;106010;1259;97843;-78
2024/03/11 04:02:53;;;;;;;20.60;10.60;;;;;;;5.41;75.12;100163.92;105900;1260;102637;-78
2024/03/11 04:05:39;;;;;;;15.90;9.40;;;;;;;5.39;74.96;100162.14;105781;1264;100369;-78
2024/03/11 04:08:24;;;;;;;19.20;11.90;;;;;;;5.39;74.91;100161.51;105774;1265;99152;-79
2024/03/11 04:11:11;;;;;;;16.20;10.00;;;;;;;5.38;74.67;100161.74;105924;1264;97973;-79
2024/03/11 04:13:57;;;;;;;17.80;10.80;;;;;;;5.38;74.59;100164.59;105875;1260;97960;-80
2024/03/11 04:16:43;;;;;;;19.20;10.90;;;;;;;5.38;74.53;100163.73;106545;1260;101347;-80
2024/03/11 04:19:30;;;;;;;18.80;10.80;;;;;;;5.38;74.49;100168.84;106750;1263;99295;-79
2024/03/11 04:22:15;;;;;;;15.90;9.30;;;;;;;5.38;74.52;100169.05;106741;1259;99271;-80
2024/03/11 04:25:01;;;;;;;19.50;10.30;;;;;;;5.37;74.27;100170.91;106713;1260;98858;-79
2024/03/11 04:27:47;;;;;;;18.20;12.40;;;;;;;5.36;74.23;100168.22;106706;1259;99145;-80
2024/03/11 04:30:39;;;;;;;17.90;11.60;;;;;;;5.35;74.26;100169.67;106723;1259;102601;-79
2024/03/11 04:33:31;;;;;;;21.80;12.00;;;;;;;5.34;74.15;100170.86;106783;1264;99094;-80
2024/03/11 04:36:17;;;;;;;18.40;10.70;;;;;;;5.32;74.16;100165.55;106754;1259;98063;-79
2024/03/11 04:39:07;;;;;;;17.00;10.20;;;;;;;5.32;74.02;100163.16;106925;1260;97951;-79
2024/03/11 04:41:52;;;;;;;19.40;11.20;;;;;;;5.32;73.95;100162.79;106557;1259;98009;-78
2024/03/11 04:44:38;;;;;;;20.70;12.60;;;;;;;5.32;73.81;100160.27;105800;1259;101424;-78
2024/03/11 04:47:23;;;;;;;17.30;10.00;;;;;;;5.31;73.72;100161.97;105753;1264;100390;-78
2024/03/11 04:50:10;;;;;;;21.10;12.40;;;;;;;5.31;73.67;100157.77;105903;1260;97990;-78
2024/03/11 04:52:58;;;;;;;24.30;12.10;;;;;;;5.30;73.74;100156.95;105660;1260;99528;-81
2024/03/11 04:55:44;;;;;;;23.20;12.90;;;;;;;5.29;73.88;100155.64;106895;1259;98488;-81
2024/03/11 04:58:29;;;;;;;21.60;10.90;;;;;;;5.28;74.11;100157.17;106741;1259;101813;-80
2024/03/11 05:01:17;;;;;;;26.90;14.50;;;;;;;5.26;73.78;100155.12;106415;1259;99851;-79
2024/03/11 05:04:02;;;;;;;24.70;12.30;;;;;;;5.24;73.82;100154.65;106322;1263;97863;-79
2024/03/11 05:06:48;;;;;;;25.40;15.90;;;;;;;5.22;73.95;100154.64;105957;1259;97918;-79
2024/03/11 05:09:33;;;;;;;31.70;17.50;;;;;;;5.20;74.20;100155.08;105868;1264;98588;-80
2024/03/11 05:12:19;;;;;;;25.30;14.00;;;;;;;5.18;74.40;100159.65;105765;1264;103108;-78
2024/03/11 05:15:11;;;;;;;24.60;13.90;;;;;;;5.17;74.66;100156.33;105875;1259;99327;-78
2024/03/11 05:17:56;;;;;;;33.80;17.60;;;;;;;5.14;74.65;100157.48;105847;1259;97995;-79
2024/03/11 05:20:42;;;;;;;26.20;14.20;;;;;;;5.12;74.84;100162.81;105869;1262;98062;-78
2024/03/11 05:23:28;;;;;;;22.40;10.60;;;;;;;5.11;75.20;100162.39;105846;1260;99566;-79
2024/03/11 05:26:13;;;;;;;18.80;12.00;;;;;;;5.11;75.28;100166.98;105864;1259;101428;-79
2024/03/11 05:28:59;;;;;;;21.90;9.90;;;;;;;5.11;75.43;100167.34;106028;1259;99227;-78
2024/03/11 05:31:45;;;;;;;21.40;12.40;;;;;;;5.09;75.83;100167.85;105873;1260;98677;-79
2024/03/11 05:34:31;;;;;;;23.80;11.20;;;;;;;5.07;76.04;100164.83;105755;1264;97965;-79
2024/03/11 05:37:18;;;;;;;16.70;10.70;;;;;;;5.04;76.35;100171.34;105817;1259;99752;-79
2024/03/11 05:40:11;;;;;;;21.30;10.30;;;;;;;5.00;76.86;100174.06;105874;1259;101388;-78
2024/03/11 05:43:10;;;;;;;16.30;9.50;;;;;;;4.97;77.13;100175.78;106324;1264;99100;-79
2024/03/11 05:45:56;;;;;;;19.50;10.50;;;;;;;4.95;77.64;100179.89;106357;1260;99004;-79
2024/03/11 05:48:42;;;;;;;20.40;11.30;;;;;;;4.93;78.07;100183.27;106300;1259;97935;-79
2024/03/11 05:51:28;;;;;;;16.00;9.80;;;;;;;4.92;78.25;100190.70;106319;1259;97497;-78
2024/03/11 05:54:17;;;;;;;17.80;10.60;;;;;;;4.90;78.27;100197.20;106405;1264;102615;-80
2024/03/11 05:57:04;;;;;;;17.90;11.00;;;;;;;4.88;78.92;100205.08;106347;1261;99227;-79
2024/03/11 05:59:51;;;;;;;17.80;11.10;;;;;;;4.85;79.51;100206.09;106308;1259;99416;-79
2024/03/11 06:02:38;;;;;;;18.10;11.50;;;;;;;4.81;79.74;100210.52;106399;1264;97887;-79
2024/03/11 06:05:23;;;;;;;20.70;12.00;;;;;;;4.79;80.22;100216.44;106410;1263;99493;-79
2024/03/11 06:08:09;;;;;;;20.50;11.70;;;;;;;4.77;80.62;100214.67;105946;1263;102718;-78
2024/03/11 06:10:54;;;;;;;21.20;11.70;;;;;;;4.76;81.28;100213.91;105733;1259;100315;-78
2024/03/11 06:13:40;;;;;;;21.40;12.20;;;;;;;4.74;81.56;100215.53;105695;1262;99094;-78
2024/03/11 06:16:26;;;;;;;21.10;12.20;;;;;;;4.72;81.58;100216.85;105928;1265;98685;-78
2024/03/11 06:19:15;;;;;;;19.50;12.60;;;;;;;4.69;81.93;100214.76;105911;1264;98432;-76
2024/03/11 06:22:02;;;;;;;21.60;12.30;;;;;;;4.67;82.51;100210.52;105865;1260;101507;-79
2024/03/11 06:24:48;;;;;;;20.60;12.70;;;;;;;4.66;82.75;100210.85;105753;1259;99131;-78
2024/03/11 06:27:34;;;;;;;21.20;12.50;;;;;;;4.63;83.00;100208.69;105797;1260;98945;-78
2024/03/11 06:30:20;;;;;;;25.30;13.60;;;;;;;4.61;83.43;100206.75;105733;1264;98069;-78
2024/03/11 06:33:09;;;;;;;22.90;13.60;;;;;;;4.59;83.58;100211.75;105776;1259;97900;-78
2024/03/11 06:35:56;;;;;;;30.70;20.00;;;;;;;4.56;84.28;100211.23;105710;1259;101432;-80
2024/03/11 06:38:41;;;;;;;24.00;14.30;;;;;;;4.54;84.94;100213.20;106903;1259;99114;-81
2024/03/11 06:41:27;;;;;;;25.80;15.50;;;;;;;4.54;85.34;100217.61;106571;1263;98735;-78
2024/03/11 06:44:13;;;;;;;27.40;17.90;;;;;;;4.53;85.72;100213.64;105852;1260;97891;-78
2024/03/11 06:46:58;;;;;;;25.70;15.20;;;;;;;4.53;86.16;100215.10;105945;1260;97968;-80
2024/03/11 06:49:44;;;;;;;28.80;18.40;;;;;;;4.51;86.82;100218.94;106481;1263;102050;-80
2024/03/11 06:52:29;;;;;;;26.60;14.90;;;;;;;4.50;87.13;100220.34;106376;1259;101120;-79
2024/03/11 06:55:16;;;;;;;29.30;17.80;;;;;;;4.48;87.53;100219.70;106058;1264;97983;-79
2024/03/11 06:58:02;;;;;;;37.80;21.50;;;;;;;4.46;88.08;100218.13;106274;1260;97994;-79
2024/03/11 07:00:48;;;;;;;33.60;19.30;;;;;;;4.46;88.38;100216.82;106302;1261;97833;-79
2024/03/11 07:03:37;;;;;;;27.10;15.40;;;;;;;4.45;88.64;100217.45;106295;1260;101356;-79
2024/03/11 07:06:24;;;;;;;27.80;18.30;;;;;;;4.43;89.01;100221.17;106385;1259;99073;-79
2024/03/11 07:09:10;;;;;;;34.90;20.00;;;;;;;4.43;89.23;100228.30;106284;1260;98535;-78
2024/03/11 07:11:55;;;;;;;28.40;15.60;;;;;;;4.44;89.80;100230.16;105938;1259;97996;-77
2024/03/11 07:14:43;;;;;;;29.10;16.80;;;;;;;4.45;89.87;100232.55;105195;1264;98447;-78
2024/03/11 07:17:29;;;;;;;70.40;32.60;;;;;;;4.45;90.12;100234.27;105580;1259;101430;-78
2024/03/11 07:20:17;;;;;;;30.40;17.50;;;;;;;4.45;90.10;100235.73;105624;1264;100160;-79
2024/03/11 07:23:03;;;;;;;37.90;21.90;;;;;;;4.43;90.37;100237.80;105747;1264;97916;-79
2024/03/11 07:25:49;;;;;;;31.30;17.80;;;;;;;4.43;90.62;100234.27;105775;1259;97997;-78
2024/03/11 07:28:34;;;;;;;29.20;16.70;;;;;;;4.43;90.75;100230.59;105733;1260;98499;-78
2024/03/11 07:31:20;;;;;;;26.70;16.30;;;;;;;4.43;90.84;100235.55;105669;1259;102069;-78
2024/03/11 07:34:05;;;;;;;32.00;19.30;;;;;;;4.42;91.02;100236.84;105287;1264;100354;-77
2024/03/11 07:36:55;;;;;;;28.10;14.90;;;;;;;4.43;91.14;100234.86;105542;1259;98059;-77
2024/03/11 07:39:41;;;;;;;26.90;15.00;;;;;;;4.42;91.10;100235.30;105680;1261;98386;-78
2024/03/11 07:42:26;;;;;;;24.90;14.80;;;;;;;4.41;91.27;100234.64;105623;1264;98481;-78
2024/03/11 07:45:12;;;;;;;24.00;15.40;;;;;;;4.42;91.39;100239.69;105621;1264;102651;-78
2024/03/11 07:47:58;;;;;;;25.90;15.50;;;;;;;4.43;91.36;100241.34;105774;1261;99217;-79
2024/03/11 07:50:44;;;;;;;39.00;21.80;;;;;;;4.44;91.50;100240.59;106269;1259;97957;-79
2024/03/11 07:53:30;;;;;;;25.50;16.70;;;;;;;4.44;91.30;100238.24;106076;1259;98006;-83
2024/03/11 07:56:16;;;;;;;25.30;16.00;;;;;;;4.46;91.24;100239.16;106286;1260;97846;-83
2024/03/11 07:59:04;;;;;;;32.60;20.60;;;;;;;4.46;91.32;100235.38;106114;1262;101365;-79
2024/03/11 08:01:50;;;;;;;37.40;21.40;;;;;;;4.47;91.46;100241.35;106388;1260;99226;-82
2024/03/11 08:04:36;;;;;;;30.10;17.30;;;;;;;4.47;91.74;100245.27;106012;1259;97912;-80
2024/03/11 08:07:22;;;;;;;28.30;17.00;;;;;;;4.46;91.91;100249.19;106462;1264;98838;-77
2024/03/11 08:10:09;;;;;;;26.10;14.90;;;;;;;4.44;91.98;100258.20;105501;1264;98451;-78
2024/03/11 08:12:58;;;;;;;35.00;18.10;;;;;;;4.46;92.52;100266.70;105393;1261;102201;-78
2024/03/11 08:15:44;;;;;;;35.30;19.30;;;;;;;4.46;92.75;100270.77;105325;1260;99143;-77
2024/03/11 08:18:29;;;;;;;45.70;24.90;;;;;;;4.46;92.97;100272.52;105310;1264;98422;-77
2024/03/11 08:21:15;;;;;;;34.90;19.90;;;;;;;4.46;93.01;100274.46;105251;1261;98745;-78
2024/03/11 08:24:01;;;;;;;35.20;19.10;;;;;;;4.44;93.28;100273.61;105427;1263;98954;-76
2024/03/11 08:26:46;;;;;;;35.30;18.40;;;;;;;4.42;93.47;100272.02;105453;1260;102597;-79
2024/03/11 08:29:32;;;;;;;32.10;19.70;;;;;;;4.39;93.43;100272.94;105546;1264;99124;-78
2024/03/11 08:32:18;;;;;;;38.70;20.70;;;;;;;4.37;93.86;100269.78;105487;1262;108253;-79
2024/03/11 08:35:04;;;;;;;39.00;21.10;;;;;;;4.35;94.12;100270.69;105282;1259;98843;-76
2024/03/11 08:37:50;;;;;;;33.00;16.50;;;;;;;4.35;94.42;100265.23;105287;1260;98501;-78
2024/03/11 08:40:38;;;;;;;40.10;21.60;;;;;;;4.33;94.55;100265.42;105267;1264;101426;-78
2024/03/11 08:43:23;;;;;;;34.20;19.50;;;;;;;4.31;94.42;100266.87;105524;1262;100452;-75
2024/03/11 08:46:11;;;;;;;28.90;18.20;;;;;;;4.31;94.89;100270.54;105429;1261;98479;-77
2024/03/11 08:48:57;;;;;;;43.40;23.30;;;;;;;4.30;94.98;100274.34;105341;1264;99142;-78
2024/03/11 08:51:43;;;;;;;26.50;16.30;;;;;;;4.30;95.09;100280.34;105345;1264;97956;-81
2024/03/11 08:54:29;;;;;;;31.50;19.60;;;;;;;4.29;95.17;100272.34;105954;1259;101525;-84
2024/03/11 08:57:16;;;;;;;28.40;18.40;;;;;;;4.28;95.47;100265.20;105966;1264;99319;-77
2024/03/11 09:00:03;;;;;;;29.50;17.00;;;;;;;4.29;95.65;100265.11;105059;1264;98064;-77
2024/03/11 09:02:49;;;;;;;33.80;19.10;;;;;;;4.30;95.77;100264.34;105013;1259;98458;-76
2024/03/11 09:05:35;;;;;;;34.40;18.30;;;;;;;4.30;96.10;100260.16;105115;1264;98415;-75
2024/03/11 09:08:22;;;;;;;31.80;19.80;;;;;;;4.34;96.30;100256.66;105333;1259;101400;-77
2024/03/11 09:11:08;;;;;;;35.00;17.60;;;;;;;4.37;96.68;100258.95;105227;1259;99050;-77
2024/03/11 09:13:53;;;;;;;36.80;21.50;;;;;;;4.40;96.93;100262.19;105170;1259;97890;-78
2024/03/11 09:16:39;;;;;;;36.60;19.90;;;;;;;4.42;96.79;100264.33;105185;1259;97887;-80
2024/03/11 09:19:25;;;;;;;30.40;16.80;;;;;;;4.42;96.94;100261.80;105308;1259;98835;-77
2024/03/11 09:22:13;;;;;;;31.50;17.10;;;;;;;4.43;97.21;100258.50;105575;1259;101365;-77
2024/03/11 09:24:59;;;;;;;29.00;17.40;;;;;;;4.42;97.40;100261.48;105324;1259;99095;-77
2024/03/11 09:27:49;;;;;;;30.30;18.00;;;;;;;4.41;97.41;100264.73;105318;1259;99305;-78
2024/03/11 09:30:35;;;;;;;26.80;16.80;;;;;;;4.40;97.74;100260.63;105402;1265;98108;-77
2024/03/11 09:33:23;;;;;;;26.40;16.20;;;;;;;4.40;97.86;100262.52;105354;1265;98400;-79
2024/03/11 09:36:09;;;;;;;31.80;18.00;;;;;;;4.42;98.03;100272.61;105324;1259;102558;-78
2024/03/11 09:38:55;;;;;;;28.10;18.00;;;;;;;4.43;98.03;100271.21;105543;1259;99083;-78
2024/03/11 09:41:42;;;;;;;33.20;18.00;;;;;;;4.43;98.26;100273.00;105391;1263;99033;-79
2024/03/11 09:44:28;;;;;;;30.20;16.90;;;;;;;4.44;98.23;100268.86;105343;1264;98041;-79
2024/03/11 09:47:16;;;;;;;32.60;17.70;;;;;;;4.45;98.47;100268.80;105299;1264;98517;-78
2024/03/11 09:50:02;;;;;;;27.60;17.50;;;;;;;4.46;98.67;100268.84;105275;1259;101380;-79
2024/03/11 09:52:49;;;;;;;28.80;16.40;;;;;;;4.47;98.95;100269.23;105172;1262;99113;-78
2024/03/11 09:55:35;;;;;;;31.70;18.80;;;;;;;4.47;98.99;100273.14;105909;1259;97995;-78
2024/03/11 09:58:23;;;;;;;34.40;18.90;;;;;;;4.49;99.43;100272.39;105372;1265;97948;-77
2024/03/11 10:01:09;;;;;;;34.50;20.00;;;;;;;4.50;99.85;100270.38;105361;1259;98412;-80
2024/03/11 10:03:56;;;;;;;33.80;20.00;;;;;;;4.51;99.95;100273.11;105464;1264;102292;-78
2024/03/11 10:06:42;;;;;;;33.80;18.90;;;;;;;4.51;99.95;100271.47;105466;1263;99575;-82
2024/03/11 10:09:28;;;;;;;30.10;17.30;;;;;;;4.51;99.99;100270.21;105228;1259;98101;-79
2024/03/11 10:12:21;;;;;;;33.80;22.70;;;;;;;4.52;100.00;100272.45;105372;1259;97937;-77
2024/03/11 10:15:27;;;;;;;34.30;24.50;;;;;;;4.52;100.00;100276.48;105436;1264;98418;-78
2024/03/11 10:18:25;;;;;;;27.90;18.30;;;;;;;4.51;100.00;100273.13;105612;1259;101498;-85
2024/03/11 10:21:17;;;;;;;29.00;17.20;;;;;;;4.49;100.00;100275.40;106095;1259;100484;-78
2024/03/11 10:24:06;;;;;;;34.10;17.80;;;;;;;4.47;100.00;100270.48;105566;1262;98686;-86
2024/03/11 10:26:54;;;;;;;30.40;17.70;;;;;;;4.47;100.00;100274.37;106078;1262;97988;-86
2024/03/11 10:29:41;;;;;;;36.70;19.00;;;;;;;4.50;100.00;100267.39;106194;1267;97968;-78
2024/03/11 10:32:36;;;;;;;27.60;16.70;;;;;;;4.50;100.00;100268.55;105674;1259;102220;-77
2024/03/11 10:35:23;;;;;;;50.10;24.80;;;;;;;4.51;100.00;100272.06;105854;1262;99247;-79
2024/03/11 10:38:13;;;;;;;37.90;22.10;;;;;;;4.52;100.00;100268.36;105343;1264;98576;-75
2024/03/11 10:41:16;;;;;;;36.90;20.20;;;;;;;4.53;100.00;100270.74;105129;1264;98067;-76
2024/03/11 10:44:19;;;;;;;37.40;21.00;;;;;;;4.51;100.00;100263.67;106218;1264;98600;-76
2024/03/11 10:47:14;;;;;;;30.00;17.60;;;;;;;4.49;100.00;100263.20;105019;1260;101418;-75
2024/03/11 10:50:01;;;;;;;36.50;20.50;;;;;;;4.48;100.00;100262.38;104983;1265;100066;-76
2024/03/11 10:52:48;;;;;;;47.60;24.90;;;;;;;4.50;100.00;100256.25;105278;1261;97964;-76
2024/03/11 10:55:38;;;;;;;31.60;19.20;;;;;;;4.53;100.00;100252.59;104831;1265;97977;-75
2024/03/11 10:58:25;;;;;;;33.30;20.70;;;;;;;4.54;100.00;100252.77;104862;1262;99138;-77
2024/03/11 11:01:12;;;;;;;37.90;20.80;;;;;;;4.57;100.00;100247.55;104824;1265;101352;-75
2024/03/11 11:04:04;;;;;;;40.50;23.50;;;;;;;4.61;100.00;100247.40;104956;1265;99087;-76
2024/03/11 11:06:51;;;;;;;39.80;23.30;;;;;;;4.66;100.00;100246.04;104909;1262;99279;-76
2024/03/11 11:09:37;;;;;;;34.00;18.80;;;;;;;4.70;100.00;100244.40;105049;1264;99311;-75
2024/03/11 11:12:22;;;;;;;37.20;22.90;;;;;;;4.74;100.00;100240.71;104992;1265;98435;-75
2024/03/11 11:15:12;;;;;;;30.60;19.60;;;;;;;4.77;100.00;100233.13;104919;1265;101371;-76
2024/03/11 11:17:59;;;;;;;32.50;19.60;;;;;;;4.79;100.00;100233.52;104914;1265;100362;-76
2024/03/11 11:20:49;;;;;;;31.80;19.50;;;;;;;4.83;100.00;100228.91;104841;1265;97974;-76
2024/03/11 11:23:35;;;;;;;30.00;19.80;;;;;;;4.87;100.00;100230.77;104864;1264;97910;-75
2024/03/11 11:26:40;;;;;;;30.80;18.30;;;;;;;4.91;100.00;100234.26;105218;1264;98005;-75
2024/03/11 11:29:27;;;;;;;32.90;19.00;;;;;;;4.93;100.00;100236.48;104890;1263;102080;-75
2024/03/11 11:32:12;;;;;;;34.60;20.80;;;;;;;4.94;100.00;100233.77;104984;1263;99231;-76
2024/03/11 11:34:57;;;;;;;29.00;17.10;;;;;;;4.97;100.00;100231.71;104962;1265;98992;-76
2024/03/11 11:37:43;;;;;;;31.70;19.50;;;;;;;4.99;100.00;100230.08;104902;1259;97888;-75
2024/03/11 11:40:29;;;;;;;27.00;18.40;;;;;;;4.99;100.00;100229.46;104915;1265;97976;-75
2024/03/11 11:43:44;;;;;;;34.90;20.90;;;;;;;4.99;100.00;100232.03;104973;1264;101351;-77
2024/03/11 11:46:51;;;;;;;41.30;22.10;;;;;;;4.98;100.00;100229.11;104862;1265;101202;-74
2024/03/11 11:49:41;;;;;;;32.90;19.00;;;;;;;4.98;100.00;100233.38;105399;1264;97881;-86
2024/03/11 11:52:27;;;;;;;29.90;18.60;;;;;;;4.94;100.00;100234.86;105796;1262;98037;-83
2024/03/11 11:55:13;;;;;;;30.10;17.00;;;;;;;4.92;100.00;100235.38;105950;1265;97972;-85
2024/03/11 11:58:10;;;;;;;34.60;17.90;;;;;;;4.93;100.00;100241.49;106038;1262;101416;-86
2024/03/11 12:01:02;;;;;;;33.60;19.70;;;;;;;4.92;100.00;100240.16;106232;1262;101371;-88
2024/03/11 12:03:48;;;;;;;31.30;18.30;;;;;;;4.90;100.00;100243.91;105526;1268;98072;-78
2024/03/11 12:06:34;;;;;;;38.20;21.60;;;;;;;4.88;100.00;100244.26;105283;1264;97958;-84
2024/03/11 12:09:20;;;;;;;29.80;18.50;;;;;;;4.86;100.00;100246.63;105827;1263;98405;-81
2024/03/11 12:12:05;;;;;;;31.80;18.90;;;;;;;4.86;100.00;100248.56;106105;1264;101421;-79
2024/03/11 12:14:51;;;;;;;32.40;18.40;;;;;;;4.86;100.00;100247.89;105603;1261;99110;-87
2024/03/11 12:17:39;;;;;;;25.60;17.70;;;;;;;4.84;100.00;100255.48;105959;1260;98001;-86
2024/03/11 12:20:30;;;;;;;28.50;17.70;;;;;;;4.83;100.00;100260.09;106263;1262;98066;-89
2024/03/11 12:23:17;;;;;;;29.50;17.00;;;;;;;4.81;100.00;100258.81;106153;1260;97930;-81
2024/03/11 12:26:03;;;;;;;26.80;16.00;;;;;;;4.80;100.00;100257.35;105989;1260;102580;-84
2024/03/11 12:29:07;;;;;;;30.80;16.80;;;;;;;4.82;100.00;100260.37;106288;1261;100237;-78
2024/03/11 12:31:55;;;;;;;27.40;15.20;;;;;;;4.83;100.00;100260.63;105463;1265;98677;-77
2024/03/11 12:34:42;;;;;;;25.90;16.60;;;;;;;4.86;100.00;100263.45;105334;1261;98451;-80
2024/03/11 12:37:29;;;;;;;32.70;20.00;;;;;;;4.89;100.00;100263.70;105517;1265;97872;-84